Weather at Midden-Zeeland Airfield

Public forecast

Using degrees Celsius for public forecast. Weather courtesy of forecast.io.

Closest aviation weather report (METAR) to Midden-Zeeland Airfield

Report is more than 6 hours old.

Closest report is Woensdrecht Air Base, 23.2 nm (42.9 km) E.

2022/11/14 15:25 (retrieved 2 years ago)

EHWO 141525Z AUTO 18006KT 120V210 9999 NCD 09/05 Q1009 BLU

Closest aviation forecast (TAF) to Midden-Zeeland Airfield

Forecast is more than 12 hours old.

Closest forecast is Ostend-Bruges International Airport, 37.2 nm (68.9 km) WSW.

2023/02/22 18:27 (retrieved 1 year ago)

TAF EBOS 221720Z 2218/2324 28004KT 6000 BKN012 TEMPO 2218/2304 2500 -RADZ BKN004 PROB40 TEMPO 2219/2302 0600 DZRA FG BKN001 BECMG 2302/2304 SCT012 BKN020 PROB30 TEMPO 2304/2318 BKN008 BECMG 2316/2318 03010KT